Flight TWA911A4-72

  • Submitted By: Roland Braksch
  • Departure Airport: Madrid Barajas International Airport (LEMD)
  • Arrival Airport: Santa Maria Airport (LPAZ)
  • Aircraft: B707-331 (N773TW)
  • Flight Time: 03.25.46
  • Date Submitted: 03/10/2017
  • Landing Report: SCREECH! Average Landing.
  • Route: N0478F380 BARDI DETOX/M082F370 ERPES/M082F380 ETESO/M082F370 39N018W 38N020W/M082F380 38N022W/M082F370 DOKAS
  • Status: Accepted
Flight Details
Gross Revenue:
(144 load / $ 0.00 per unit
$ 0.00
Fuel Cost:
(33276 fuel used @ 0.59 / unit)
$ 19, 632.84

Additional Log Information:

View Log

[11:21] - CS_B707-331 TWA Globe
[11:21] - Flight TWA911A4-72 is ready to depart LEMD with a final destination of LPAZ.
[11:21] - Parking Brake Applied
[11:21] - Navigation Lights ON
[11:21] - Cabin Lights ON
[11:21] - Boarding
[11:28] - Beacon Light ON 10AGL
[11:29] - Engine 3 Started
[11:29] - Parking Brake Released
[11:29] - Pushing Back from the gate
[11:30] - Engine 4 Started
[11:31] - Engine 2 Started
[11:31] - Engine 1 Started
[11:31] - Parking Brake Applied
[11:32] - Flaps to position 1
[11:32] - Wing Lights ON 10AGL
[11:32] - Taxi Lights ON 10AGL
[11:33] - Parking Brake Released
[11:35] - Taxiing to Runway
[11:57] - Landing Lights ON 10AGL
[11:57] - Strobe Lights ON 10AGL
[11:57] - Simulator Paused
[11:57] - Simulator Un-Paused
[11:58] - Taking Off with 144 passengers on board
[11:59] - Take off at 148kts, with a pitch of 7deg and 35329lbs of fuel on board
[11:59] - Wind Heading 285 | Wind Speed 5kts | Temperature 21 deg C
[11:59] - Taxi Lights OFF 105AGL
[11:59] - Gear up at 328AGL
[11:59] - Climbing to TOC
[11:59] - AutoPilot Engaged at 646AGL
[11:59] - Flaps to position 0 at 3173ft and 202kts
[12:02] - Landing Lights OFF 8090AGL
[13:06] - TOC reached
[13:06] - Cruise started
[14:17] - TOD reached
[14:17] - Descending to destination
[14:34] - Landing Lights ON 10646AGL
[14:39] - Flaps to position 1 at 5883ft and 256kts
[14:39] - Landing Shortly
[14:41] - Gear down at 2457AGL
[14:41] - Taxi Lights ON 2408AGL
[14:41] - Flaps to position 2 at 1660ft and 177kts
[14:42] - Flaps to position 3 at 1329ft and 151kts
[14:42] - AutoPilot Disengaged at 1283AGL
[14:43] - Landed at -155fpm. With 7666lbs of fuel onboard and a pitch angle of 6deg.
[14:43] - Wind Heading 340 | Wind Speed 8kts | Temperature 13 deg C
[14:44] - Taxiing to Gate
[14:44] - Landing Lights OFF 10AGL
[14:44] - Strobe Lights OFF 10AGL
[14:44] - Flaps to position 1
[14:44] - Flaps to position 0
[14:45] - Taxi Lights OFF 10AGL
[14:46] - Parking Brake Applied
[14:46] - Arrived safely at LPAZ. We hope you enjoyed your flight!
[14:46] - Engine 1 Stopped
[14:46] - Engine 2 Stopped
[14:46] - Engine 3 Stopped
[14:46] - Engine 4 Stopped
[14:47] - CS_B707-331 TWA Globe
[14:47] - MaxSim Rate: 1x
[14:47] - vTWAcars ver: 1.0.1.5

Comments

Commenter Comment
Roland Braksch LEMD 101800Z 21007KT 170V260 CAVOK 24/00 Q1020 NOSIG ...LPAZ 102200Z 33009KT 9999 FEW030 13/08 Q1026

Route Map